Time;durP1;ratioP1;P1;durP2;ratioP2;P2;SDS_P1;SDS_P2;PMS_P1;PMS_P2;Temp;Humidity;BMP_temperature;BMP_pressure;BME280_temperature;BME280_humidity;BME280_pressure;Samples;Min_cycle;Max_cycle;Signal;HPM_P1;HPM_P2
2021/01/11 00:40:51;;;;;;;34.37;19.67;;;2.50;99.90;;;;;;4489484;23;20238;-94
2021/01/11 00:42:52;;;;;;;33.17;19.27;;;2.70;99.90;;;;;;4042299;29;20174;-94
2021/01/11 00:44:53;;;;;;;34.73;19.20;;;2.70;99.90;;;;;;4026481;29;20198;-93
2021/01/11 00:47:02;;;;;;;38.37;19.93;;;2.70;99.90;;;;;;4039989;29;20185;-93
2021/01/11 00:49:07;;;;;;;35.93;19.90;;;2.60;99.90;;;;;;4040019;29;20228;-93
2021/01/11 00:51:09;;;;;;;38.67;19.83;;;2.70;99.90;;;;;;4039754;29;20225;-93
2021/01/11 00:53:11;;;;;;;39.13;21.30;;;2.70;99.90;;;;;;4025686;29;20281;-93
2021/01/11 00:55:14;;;;;;;37.80;20.40;;;2.70;99.90;;;;;;4025728;29;20694;-93
2021/01/11 00:57:21;;;;;;;34.10;19.73;;;2.80;99.90;;;;;;4041391;29;20268;-93
2021/01/11 00:59:28;;;;;;;35.97;19.90;;;2.90;99.90;;;;;;4025275;29;20189;-93
2021/01/11 01:01:30;;;;;;;35.53;19.13;;;2.90;99.90;;;;;;4039661;29;20712;-94
2021/01/11 01:03:33;;;;;;;29.07;18.23;;;3.00;99.90;;;;;;4023951;29;20217;-93
2021/01/11 01:05:37;;;;;;;39.83;20.43;;;3.10;99.90;;;;;;4024413;29;20274;-94
2021/01/11 01:07:39;;;;;;;33.47;19.23;;;3.00;99.90;;;;;;4024708;29;20230;-94
2021/01/11 01:09:42;;;;;;;35.10;19.30;;;3.10;99.90;;;;;;4040680;29;20160;-94
2021/01/11 01:11:43;;;;;;;34.80;18.73;;;3.20;99.90;;;;;;4024190;29;20183;-94
2021/01/11 01:13:49;;;;;;;31.50;18.57;;;3.20;99.90;;;;;;4039306;29;20217;-94
2021/01/11 01:15:55;;;;;;;30.50;17.97;;;3.00;99.90;;;;;;4040535;29;20243;-94
2021/01/11 01:18:14;;;;;;;32.70;18.50;;;3.10;99.90;;;;;;4040630;29;20193;-93
2021/01/11 01:20:19;;;;;;;33.13;18.67;;;3.10;99.90;;;;;;4056508;29;20256;-93
2021/01/11 01:22:23;;;;;;;38.23;18.63;;;2.90;99.90;;;;;;4041363;29;20165;-93
2021/01/11 01:24:39;;;;;;;34.07;18.93;;;2.90;99.90;;;;;;4041016;29;20714;-93
2021/01/11 01:26:40;;;;;;;33.23;19.37;;;3.00;99.90;;;;;;4039145;29;20185;-93
2021/01/11 01:28:45;;;;;;;37.10;20.10;;;3.10;99.90;;;;;;4041053;29;20194;-94
2021/01/11 01:30:46;;;;;;;34.67;20.63;;;3.30;99.90;;;;;;4024106;29;20201;-93
2021/01/11 01:32:47;;;;;;;36.03;19.53;;;3.50;99.90;;;;;;4023357;29;20186;-94
2021/01/11 01:34:52;;;;;;;33.77;19.67;;;3.40;99.90;;;;;;4039514;29;20292;-93
2021/01/11 01:36:55;;;;;;;32.63;19.27;;;3.00;99.90;;;;;;4024593;29;20174;-93
2021/01/11 01:38:56;;;;;;;32.70;19.13;;;2.70;99.90;;;;;;4023719;29;20186;-94
2021/01/11 01:40:57;;;;;;;32.80;18.07;;;2.60;99.90;;;;;;4023610;29;20238;-93
2021/01/11 01:43:01;;;;;;;31.17;18.93;;;2.60;99.90;;;;;;4039837;29;20173;-93
2021/01/11 01:45:05;;;;;;;31.77;19.10;;;2.60;99.90;;;;;;4023662;29;20190;-93
2021/01/11 01:47:06;;;;;;;33.93;18.90;;;2.70;99.90;;;;;;4040534;29;20658;-92
2021/01/11 01:49:09;;;;;;;30.33;17.10;;;2.60;99.90;;;;;;4040684;29;20186;-94
2021/01/11 01:51:14;;;;;;;34.70;19.23;;;2.50;99.90;;;;;;4025132;29;20190;-93
2021/01/11 01:53:15;;;;;;;39.67;20.07;;;2.60;99.90;;;;;;4023683;29;20270;-93
2021/01/11 01:55:23;;;;;;;32.23;18.13;;;2.70;99.90;;;;;;4038994;29;20206;-93
2021/01/11 01:57:23;;;;;;;38.50;20.93;;;2.60;99.90;;;;;;4054713;29;20204;-94
2021/01/11 01:59:26;;;;;;;32.90;19.60;;;2.60;99.90;;;;;;4039104;29;20309;-93
2021/01/11 02:01:42;;;;;;;34.93;20.03;;;2.50;99.90;;;;;;4040232;29;20537;-94
2021/01/11 02:03:48;;;;;;;37.13;20.23;;;2.70;99.90;;;;;;4038580;29;20729;-94
2021/01/11 02:06:04;;;;;;;35.20;20.07;;;2.60;99.90;;;;;;4023463;29;20693;-94
2021/01/11 02:08:30;;;;;;;35.43;20.37;;;2.70;99.90;;;;;;4038919;29;20561;-94
2021/01/11 02:11:05;;;;;;;33.50;17.07;;;2.80;99.90;;;;;;4023252;29;20178;-93
2021/01/11 02:13:17;;;;;;;37.40;20.27;;;2.60;99.90;;;;;;4023292;29;20270;-93
2021/01/11 02:15:25;;;;;;;36.90;20.67;;;2.70;99.90;;;;;;4025247;29;20225;-94
2021/01/11 02:17:53;;;;;;;35.63;19.83;;;2.90;99.90;;;;;;4040157;29;20226;-94
2021/01/11 02:20:15;;;;;;;35.33;20.00;;;2.80;99.90;;;;;;4038452;29;20280;-93
2021/01/11 02:22:44;;;;;;;38.57;19.87;;;2.80;99.90;;;;;;4038391;29;20177;-93
2021/01/11 02:24:58;;;;;;;33.50;20.67;;;3.00;99.90;;;;;;4023044;29;20225;-94
2021/01/11 02:27:15;;;;;;;33.73;20.47;;;2.90;99.90;;;;;;4025872;29;20333;-93
2021/01/11 02:29:42;;;;;;;31.87;19.73;;;3.00;99.90;;;;;;4023135;29;20209;-94
2021/01/11 02:31:51;;;;;;;33.73;20.20;;;3.00;99.90;;;;;;4040193;29;20333;-93
2021/01/11 02:33:59;;;;;;;33.03;20.03;;;2.90;99.90;;;;;;4024002;29;20186;-93
2021/01/11 02:36:05;;;;;;;32.30;19.37;;;3.10;99.90;;;;;;4053739;29;20553;-93
2021/01/11 02:38:06;;;;;;;34.57;21.20;;;3.30;99.90;;;;;;4022955;29;20182;-94
2021/01/11 02:40:11;;;;;;;34.73;21.03;;;3.30;99.90;;;;;;4039375;29;20276;-94
2021/01/11 02:42:12;;;;;;;33.37;19.77;;;3.30;99.90;;;;;;4022601;29;20259;-93
2021/01/11 02:44:15;;;;;;;33.93;20.63;;;3.40;99.90;;;;;;4022983;29;20267;-93
2021/01/11 02:46:22;;;;;;;32.57;19.37;;;3.40;99.90;;;;;;4038730;29;20170;-94
2021/01/11 02:48:43;;;;;;;33.33;19.13;;;3.50;99.90;;;;;;4054000;29;20181;-93
2021/01/11 02:51:19;;;;;;;30.23;19.10;;;3.40;99.90;;;;;;4022735;29;20246;-93
2021/01/11 02:53:34;;;;;;;31.37;19.10;;;3.20;99.90;;;;;;4053452;29;20273;-93
2021/01/11 02:55:47;;;;;;;34.17;19.37;;;3.00;99.90;;;;;;4053631;29;20217;-94
2021/01/11 02:58:11;;;;;;;32.70;19.23;;;3.10;99.90;;;;;;4037834;29;20217;-94
2021/01/11 03:00:31;;;;;;;31.07;19.00;;;3.10;99.90;;;;;;4040143;29;20169;-93
2021/01/11 03:02:36;;;;;;;36.40;19.87;;;3.30;99.90;;;;;;4037911;29;20185;-93
2021/01/11 03:05:07;;;;;;;31.67;19.47;;;3.40;99.90;;;;;;4024059;29;20216;-95
2021/01/11 03:07:12;;;;;;;34.07;19.87;;;3.40;99.90;;;;;;4038458;29;20170;-93
2021/01/11 03:09:28;;;;;;;35.80;21.47;;;3.30;99.90;;;;;;4039382;29;20225;-95
2021/01/11 03:11:52;;;;;;;33.77;18.67;;;3.40;99.90;;;;;;4042798;29;20193;-93
2021/01/11 03:13:58;;;;;;;30.63;18.67;;;3.20;99.90;;;;;;4114576;23;20227;-93
2021/01/11 03:16:03;;;;;;;37.37;20.83;;;3.10;99.90;;;;;;4008108;29;20222;-94
2021/01/11 03:18:23;;;;;;;39.40;20.80;;;3.00;99.90;;;;;;4139632;23;20232;-93
2021/01/11 03:20:27;;;;;;;37.03;21.00;;;3.10;99.90;;;;;;4039047;29;20184;-93
2021/01/11 03:22:28;;;;;;;37.63;20.50;;;3.30;99.90;;;;;;4037825;29;20173;-93
2021/01/11 03:24:29;;;;;;;33.10;18.33;;;3.20;99.90;;;;;;4027289;29;20575;-94
2021/01/11 03:26:32;;;;;;;29.17;19.57;;;3.10;99.90;;;;;;4023513;29;20663;-94
2021/01/11 03:28:33;;;;;;;35.50;20.60;;;2.90;99.90;;;;;;4037998;29;20189;-93
2021/01/11 03:30:35;;;;;;;37.83;20.97;;;2.90;99.90;;;;;;4055112;29;20189;-93
2021/01/11 03:32:47;;;;;;;36.50;21.67;;;3.00;99.90;;;;;;4022799;29;20285;-93
2021/01/11 03:34:48;;;;;;;35.17;20.83;;;3.00;99.90;;;;;;4023682;29;20213;-92
2021/01/11 03:37:02;;;;;;;34.00;20.90;;;2.90;99.90;;;;;;4037798;29;20188;-93
2021/01/11 03:39:19;;;;;;;35.67;21.40;;;3.10;99.90;;;;;;4130211;23;20626;-95
2021/01/11 03:41:21;;;;;;;35.43;19.70;;;3.20;99.90;;;;;;4037657;29;20181;-94
2021/01/11 03:43:43;;;;;;;35.10;21.23;;;3.20;99.90;;;;;;4051099;29;20193;-94
2021/01/11 03:45:44;;;;;;;31.27;19.40;;;3.20;99.90;;;;;;4049827;23;20252;-94
2021/01/11 03:48:03;;;;;;;33.73;18.50;;;3.10;99.90;;;;;;4038052;29;20182;-93
2021/01/11 03:50:20;;;;;;;36.10;20.30;;;3.10;99.90;;;;;;4040835;29;20178;-93
2021/01/11 03:52:21;;;;;;;32.67;20.00;;;3.00;99.90;;;;;;4040282;29;20246;-93
2021/01/11 03:54:39;;;;;;;34.90;20.30;;;3.00;99.90;;;;;;4045000;29;20201;-93
2021/01/11 03:56:47;;;;;;;34.63;19.03;;;3.10;99.90;;;;;;4041015;29;20205;-94
2021/01/11 03:59:03;;;;;;;33.60;18.80;;;3.00;99.90;;;;;;4026535;29;20174;-94
2021/01/11 04:01:42;;;;;;;37.67;20.57;;;3.00;99.90;;;;;;4042286;29;20203;-95
2021/01/11 04:03:47;;;;;;;32.77;18.57;;;3.00;99.90;;;;;;4024223;29;20653;-95
2021/01/11 04:05:48;;;;;;;31.87;18.37;;;3.10;99.90;;;;;;4025099;29;20189;-94
2021/01/11 04:07:48;;;;;;;33.33;20.27;;;3.10;99.90;;;;;;4026544;29;20186;-94
2021/01/11 04:09:51;;;;;;;31.17;18.63;;;3.00;99.90;;;;;;4027189;29;20194;-94
2021/01/11 04:11:52;;;;;;;33.33;20.03;;;3.00;99.90;;;;;;4025010;29;20187;-93
2021/01/11 04:13:58;;;;;;;31.40;19.43;;;3.00;99.90;;;;;;4040205;29;20284;-94
2021/01/11 04:16:03;;;;;;;32.67;20.00;;;2.90;99.90;;;;;;4027563;29;20225;-93
2021/01/11 04:18:20;;;;;;;31.53;19.17;;;2.80;99.90;;;;;;4025968;29;20182;-94
2021/01/11 04:20:40;;;;;;;34.77;19.37;;;2.70;99.90;;;;;;4042939;29;20181;-93
2021/01/11 04:22:51;;;;;;;32.90;19.17;;;2.80;99.90;;;;;;4026630;29;20177;-93
2021/01/11 04:25:03;;;;;;;32.60;19.03;;;2.80;99.90;;;;;;4041849;29;20201;-94
2021/01/11 04:27:06;;;;;;;30.43;19.50;;;3.00;99.90;;;;;;4026709;29;20162;-94
2021/01/11 04:29:07;;;;;;;31.77;19.43;;;2.90;99.90;;;;;;4025027;29;20186;-94
2021/01/11 04:31:18;;;;;;;32.13;20.27;;;3.00;99.90;;;;;;4041823;29;20273;-93
2021/01/11 04:33:29;;;;;;;27.70;16.63;;;3.10;99.90;;;;;;4040827;29;20578;-94
2021/01/11 04:35:36;;;;;;;29.10;16.77;;;3.00;99.90;;;;;;4041671;29;20252;-93
2021/01/11 04:37:37;;;;;;;26.63;16.83;;;2.80;99.90;;;;;;4024448;29;20226;-93
2021/01/11 04:39:43;;;;;;;25.57;16.17;;;2.90;99.90;;;;;;4024563;29;20217;-94
2021/01/11 04:41:48;;;;;;;25.00;15.07;;;2.80;99.90;;;;;;4024238;29;20186;-93
2021/01/11 04:43:50;;;;;;;23.40;15.73;;;2.80;99.90;;;;;;4024281;29;20598;-94
2021/01/11 04:45:57;;;;;;;25.90;16.20;;;2.90;99.90;;;;;;4024420;29;20237;-93
2021/01/11 04:48:00;;;;;;;22.33;14.50;;;2.80;99.90;;;;;;4026007;29;20183;-94
2021/01/11 04:50:18;;;;;;;25.40;15.47;;;2.90;99.90;;;;;;4040191;29;20205;-94
2021/01/11 04:54:31;;;;;;;24.03;16.00;;;3.00;99.90;;;;;;4074486;23;20244;-94
2021/01/11 04:56:34;;;;;;;24.13;15.97;;;3.00;99.90;;;;;;4028888;29;20201;-95
2021/01/11 04:59:02;;;;;;;24.60;15.03;;;3.10;99.90;;;;;;4039624;29;20543;-94
2021/01/11 05:01:21;;;;;;;22.37;15.33;;;3.00;99.90;;;;;;4057809;29;20176;-94
2021/01/11 05:03:41;;;;;;;20.60;11.17;;;3.00;99.90;;;;;;4041244;29;20558;-95
2021/01/11 05:05:51;;;;;;;20.77;13.57;;;2.90;99.90;;;;;;4025571;29;20718;-94
2021/01/11 05:07:52;;;;;;;20.57;13.27;;;2.80;99.90;;;;;;4024957;29;20186;-93
2021/01/11 05:09:54;;;;;;;25.23;14.90;;;2.80;99.90;;;;;;4026489;29;20197;-94
2021/01/11 05:12:09;;;;;;;21.93;13.90;;;2.80;99.90;;;;;;4040608;29;20265;-93
2021/01/11 05:14:22;;;;;;;22.17;13.80;;;2.90;99.90;;;;;;4025524;29;20284;-94
2021/01/11 05:16:23;;;;;;;20.80;12.47;;;3.00;99.90;;;;;;4026199;29;20210;-94
2021/01/11 05:18:34;;;;;;;24.23;14.67;;;3.00;99.90;;;;;;4025482;29;20564;-94
2021/01/11 05:20:38;;;;;;;22.67;13.87;;;3.00;99.90;;;;;;4024480;29;20185;-93
2021/01/11 05:22:48;;;;;;;22.03;13.97;;;3.00;99.90;;;;;;4039665;29;20630;-95
2021/01/11 05:24:50;;;;;;;21.23;14.60;;;3.00;99.90;;;;;;4039904;29;20235;-94
2021/01/11 05:26:53;;;;;;;22.13;13.07;;;3.20;99.90;;;;;;4041246;29;20210;-94
2021/01/11 05:29:17;;;;;;;22.47;14.17;;;3.20;99.90;;;;;;4026092;29;20190;-93
2021/01/11 05:31:18;;;;;;;23.53;15.03;;;3.10;99.90;;;;;;4039368;29;20174;-94
2021/01/11 05:33:34;;;;;;;22.47;15.10;;;3.10;99.90;;;;;;4040336;29;20273;-93
2021/01/11 05:35:39;;;;;;;19.47;13.90;;;3.40;99.90;;;;;;4025304;29;20313;-94
2021/01/11 05:37:52;;;;;;;22.00;14.40;;;3.50;99.90;;;;;;4026420;29;20237;-95
2021/01/11 05:40:09;;;;;;;26.70;15.10;;;3.50;99.90;;;;;;4111943;23;20200;-94
2021/01/11 05:42:22;;;;;;;20.03;13.67;;;3.40;99.90;;;;;;4008968;29;20607;-93
2021/01/11 05:44:25;;;;;;;19.97;14.33;;;3.30;99.90;;;;;;4008515;29;20229;-94
2021/01/11 05:46:32;;;;;;;24.90;14.27;;;3.30;99.90;;;;;;3993445;29;20687;-94
2021/01/11 05:48:32;;;;;;;21.77;14.30;;;3.40;99.90;;;;;;4008321;29;20175;-94
2021/01/11 05:50:37;;;;;;;23.97;14.37;;;3.40;99.90;;;;;;3994819;29;20535;-93
2021/01/11 05:52:38;;;;;;;22.60;14.60;;;3.50;99.90;;;;;;4053201;24;20230;-94
2021/01/11 05:54:38;;;;;;;19.23;11.87;;;3.50;99.90;;;;;;3998355;29;20710;-95
2021/01/11 05:57:11;;;;;;;21.37;14.27;;;3.40;99.90;;;;;;3995829;29;20632;-94
2021/01/11 05:59:12;;;;;;;17.07;10.13;;;3.20;99.90;;;;;;3994769;29;20557;-94
2021/01/11 06:01:51;;;;;;;18.83;13.27;;;3.30;99.90;;;;;;4009268;29;20181;-94
2021/01/11 06:03:52;;;;;;;21.73;13.67;;;3.40;99.90;;;;;;4009623;29;20217;-94
2021/01/11 06:06:14;;;;;;;18.53;11.87;;;3.40;99.90;;;;;;3993317;29;20320;-95
2021/01/11 06:08:20;;;;;;;23.43;14.63;;;3.30;99.90;;;;;;3994336;29;20200;-94
2021/01/11 06:11:00;;;;;;;18.93;12.07;;;3.20;99.90;;;;;;4008008;29;20174;-94
2021/01/11 06:13:16;;;;;;;19.77;13.13;;;3.10;99.90;;;;;;3993506;29;20187;-95
2021/01/11 06:15:59;;;;;;;19.93;13.00;;;3.20;99.90;;;;;;3993330;29;20222;-95
2021/01/11 06:18:26;;;;;;;20.10;13.07;;;3.20;99.90;;;;;;4011198;29;20194;-95
2021/01/11 06:20:48;;;;;;;19.83;12.53;;;3.20;99.90;;;;;;4008775;29;20262;-94
2021/01/11 06:23:14;;;;;;;20.27;13.40;;;3.10;99.90;;;;;;4008579;29;20572;-95
2021/01/11 06:25:52;;;;;;;20.83;14.07;;;3.10;99.90;;;;;;4007391;29;20214;-94
2021/01/11 06:28:11;;;;;;;20.27;12.53;;;3.20;99.90;;;;;;3992573;29;20278;-94
2021/01/11 06:30:48;;;;;;;21.30;12.87;;;3.30;99.90;;;;;;4009321;29;20183;-95
2021/01/11 06:33:11;;;;;;;20.90;13.17;;;3.10;99.90;;;;;;4051123;23;20201;-95
2021/01/11 06:35:21;;;;;;;19.27;13.30;;;3.10;99.90;;;;;;4038337;29;20233;-94
2021/01/11 06:37:42;;;;;;;17.90;12.27;;;3.30;99.90;;;;;;4064510;23;20438;-94
2021/01/11 06:40:13;;;;;;;19.10;13.17;;;3.30;99.90;;;;;;4084442;23;20240;-96
2021/01/11 06:42:33;;;;;;;16.53;10.50;;;3.20;99.90;;;;;;4185320;23;21019;-94
2021/01/11 06:44:34;;;;;;;20.73;13.50;;;3.20;99.90;;;;;;4113497;23;20229;-94
2021/01/11 06:46:52;;;;;;;20.27;12.80;;;3.10;99.90;;;;;;4044031;23;20193;-93
2021/01/11 06:49:24;;;;;;;19.27;11.80;;;3.20;99.90;;;;;;4035570;29;20201;-94
2021/01/11 06:54:06;;;;;;;17.33;12.30;;;3.10;99.90;;;;;;4043465;29;20231;-93
2021/01/11 06:56:08;;;;;;;18.67;12.37;;;3.10;99.90;;;;;;4022899;29;20214;-92
2021/01/11 06:58:08;;;;;;;17.70;12.10;;;3.10;99.90;;;;;;4022830;29;20178;-92
2021/01/11 07:00:10;;;;;;;17.97;10.90;;;3.00;99.90;;;;;;4038591;29;20185;-93
2021/01/11 07:02:22;;;;;;;17.83;12.30;;;3.10;99.90;;;;;;4022648;29;20193;-92
2021/01/11 07:04:36;;;;;;;16.90;10.47;;;3.10;99.90;;;;;;4022767;29;20290;-93
2021/01/11 07:06:43;;;;;;;17.90;12.83;;;3.00;99.90;;;;;;4022562;29;20250;-93
2021/01/11 07:08:44;;;;;;;20.77;12.53;;;3.10;99.90;;;;;;4022873;29;20261;-91
2021/01/11 07:10:47;;;;;;;18.13;12.47;;;3.10;99.90;;;;;;4038020;29;20177;-93
2021/01/11 07:12:47;;;;;;;17.90;12.60;;;3.10;99.90;;;;;;4022710;29;20170;-92
2021/01/11 07:15:06;;;;;;;20.87;11.93;;;3.20;99.90;;;;;;4037849;29;20204;-92
2021/01/11 07:17:07;;;;;;;17.20;11.83;;;3.30;99.90;;;;;;4022800;29;20182;-92
2021/01/11 07:19:12;;;;;;;15.97;10.80;;;3.20;99.90;;;;;;4038303;29;20185;-92
2021/01/11 07:21:17;;;;;;;16.23;11.33;;;3.20;99.90;;;;;;4022759;29;20190;-92
2021/01/11 07:23:17;;;;;;;21.23;12.30;;;3.20;99.90;;;;;;4022731;29;20410;-91
2021/01/11 07:25:22;;;;;;;16.83;11.50;;;3.20;99.90;;;;;;4022441;29;20222;-92
2021/01/11 07:27:22;;;;;;;13.97;10.57;;;3.10;99.90;;;;;;4037624;29;20662;-94
2021/01/11 07:29:24;;;;;;;16.50;11.20;;;3.10;99.90;;;;;;4022647;29;20194;-91
2021/01/11 07:31:29;;;;;;;18.83;11.40;;;3.10;99.90;;;;;;4022512;29;20186;-91
2021/01/11 07:33:30;;;;;;;16.03;8.80;;;3.10;99.90;;;;;;4022353;29;20305;-92
2021/01/11 07:35:38;;;;;;;17.07;11.10;;;3.10;99.90;;;;;;4037971;29;20598;-90
2021/01/11 07:37:39;;;;;;;16.90;11.30;;;3.20;99.90;;;;;;4022470;29;20170;-91
2021/01/11 07:39:40;;;;;;;15.37;8.93;;;3.20;99.90;;;;;;4037567;29;20185;-91
2021/01/11 07:41:54;;;;;;;16.33;11.40;;;3.20;99.90;;;;;;4022598;29;20661;-90
2021/01/11 07:44:13;;;;;;;16.37;11.70;;;3.30;99.90;;;;;;4022294;29;20287;-91
2021/01/11 07:46:21;;;;;;;17.17;11.57;;;3.30;99.90;;;;;;4022397;29;20734;-90
2021/01/11 07:48:21;;;;;;;15.67;10.60;;;3.30;99.90;;;;;;4022386;29;20185;-90
2021/01/11 07:50:29;;;;;;;16.87;11.43;;;3.40;99.90;;;;;;4037711;29;20264;-91
2021/01/11 07:52:30;;;;;;;16.40;11.33;;;3.30;99.90;;;;;;4021938;29;20731;-91
2021/01/11 07:54:31;;;;;;;16.57;11.03;;;3.30;99.90;;;;;;4022611;29;20228;-91
2021/01/11 07:56:32;;;;;;;18.33;12.13;;;3.20;99.90;;;;;;4022244;29;20206;-91
2021/01/11 07:58:33;;;;;;;17.30;10.27;;;3.20;99.90;;;;;;4022355;29;20178;-90
2021/01/11 08:00:34;;;;;;;19.43;12.67;;;3.20;99.90;;;;;;4022424;29;20190;-92
2021/01/11 08:02:35;;;;;;;18.87;11.33;;;3.30;99.90;;;;;;4037596;29;20205;-92
2021/01/11 08:04:37;;;;;;;20.63;11.93;;;3.40;99.90;;;;;;4022015;29;20202;-92
2021/01/11 08:06:57;;;;;;;19.33;12.67;;;3.30;99.90;;;;;;4022491;29;20627;-91
2021/01/11 08:09:00;;;;;;;14.77;9.27;;;3.30;99.90;;;;;;4022157;29;20190;-91
2021/01/11 08:11:05;;;;;;;19.93;13.00;;;3.30;99.90;;;;;;4037453;29;20188;-91
2021/01/11 08:13:07;;;;;;;20.93;11.60;;;3.40;99.90;;;;;;4037529;29;20201;-92
2021/01/11 08:15:08;;;;;;;19.53;12.30;;;3.40;99.90;;;;;;4022165;29;20274;-90
2021/01/11 08:17:18;;;;;;;22.73;14.30;;;3.30;99.90;;;;;;4037413;29;20223;-92
2021/01/11 08:19:20;;;;;;;20.17;10.27;;;3.40;99.90;;;;;;4037408;29;20644;-90
2021/01/11 08:21:20;;;;;;;19.73;13.27;;;3.40;99.90;;;;;;4022034;29;20663;-92
2021/01/11 08:23:21;;;;;;;17.30;11.30;;;3.40;99.90;;;;;;4022077;29;20178;-92
2021/01/11 08:25:23;;;;;;;15.60;10.17;;;3.40;99.90;;;;;;4022245;29;20185;-91
2021/01/11 08:27:31;;;;;;;17.57;12.47;;;3.40;99.90;;;;;;4022231;29;20206;-91
2021/01/11 08:29:36;;;;;;;12.17;8.63;;;3.40;99.90;;;;;;4022227;29;20744;-92
2021/01/11 08:31:38;;;;;;;19.17;13.20;;;3.40;99.90;;;;;;4022097;29;20677;-91
2021/01/11 08:33:39;;;;;;;19.10;11.67;;;3.30;99.90;;;;;;4037603;29;20654;-92
2021/01/11 08:35:39;;;;;;;21.47;13.20;;;3.30;99.90;;;;;;4021779;29;20214;-92
2021/01/11 08:37:42;;;;;;;14.43;8.73;;;3.50;99.90;;;;;;4021844;29;20178;-92
2021/01/11 08:39:52;;;;;;;19.20;12.77;;;3.40;99.90;;;;;;4023616;29;20170;-92
2021/01/11 08:41:54;;;;;;;19.67;12.47;;;3.50;99.90;;;;;;4024786;29;20258;-91
2021/01/11 08:43:55;;;;;;;10.47;5.90;;;3.40;99.90;;;;;;4024591;29;20258;-92
2021/01/11 08:45:56;;;;;;;18.27;9.40;;;3.30;99.90;;;;;;4039831;29;20173;-91
2021/01/11 08:48:00;;;;;;;18.77;11.03;;;3.20;99.90;;;;;;4024535;29;20190;-90
2021/01/11 08:50:05;;;;;;;19.03;12.87;;;3.30;99.90;;;;;;4024453;29;20223;-91
2021/01/11 08:52:10;;;;;;;18.50;11.87;;;3.40;99.90;;;;;;4024298;29;20538;-92
2021/01/11 08:54:24;;;;;;;18.43;12.20;;;3.40;99.90;;;;;;4024365;29;20202;-91
2021/01/11 08:56:28;;;;;;;18.27;12.37;;;3.40;99.90;;;;;;4039962;29;20212;-92
2021/01/11 08:58:33;;;;;;;19.67;12.30;;;3.50;99.90;;;;;;4024468;29;20170;-92
2021/01/11 09:00:34;;;;;;;20.73;12.80;;;3.50;99.90;;;;;;4024407;29;20209;-92
2021/01/11 09:02:35;;;;;;;16.13;11.27;;;3.60;99.90;;;;;;4024506;29;20659;-92
2021/01/11 09:04:36;;;;;;;13.30;9.97;;;3.60;99.90;;;;;;4024339;29;20198;-91
2021/01/11 09:06:45;;;;;;;11.63;7.53;;;3.60;99.90;;;;;;4024576;29;20222;-92
2021/01/11 09:08:46;;;;;;;16.17;11.97;;;3.60;99.90;;;;;;4024507;29;20254;-91
2021/01/11 09:10:46;;;;;;;18.70;12.53;;;3.70;99.90;;;;;;4039708;29;20618;-92
2021/01/11 09:12:48;;;;;;;18.70;11.77;;;3.80;99.90;;;;;;4024555;29;20261;-92
2021/01/11 09:14:52;;;;;;;17.30;11.80;;;3.80;99.90;;;;;;4024106;29;20270;-91
2021/01/11 09:17:03;;;;;;;16.63;12.03;;;3.80;99.90;;;;;;4024561;29;20171;-91
2021/01/11 09:19:17;;;;;;;17.33;11.57;;;4.00;99.90;;;;;;4039791;29;20240;-90
2021/01/11 09:21:24;;;;;;;17.63;11.50;;;4.10;99.90;;;;;;4024001;29;20182;-93
2021/01/11 09:23:25;;;;;;;16.60;11.10;;;4.00;99.90;;;;;;4039716;29;20646;-91
2021/01/11 09:25:28;;;;;;;16.73;10.87;;;4.00;99.90;;;;;;4039399;29;20186;-91
2021/01/11 09:27:29;;;;;;;15.33;9.67;;;4.20;99.90;;;;;;4024116;29;20257;-92
2021/01/11 09:29:29;;;;;;;14.00;8.47;;;4.20;99.90;;;;;;4024373;29;20182;-91
2021/01/11 09:31:30;;;;;;;13.67;9.77;;;4.20;99.90;;;;;;4023875;29;20689;-90
2021/01/11 09:33:31;;;;;;;12.87;8.30;;;4.10;99.90;;;;;;4039185;29;20302;-91
2021/01/11 09:35:32;;;;;;;14.90;10.37;;;4.10;99.90;;;;;;4024046;29;20304;-90
2021/01/11 09:37:32;;;;;;;15.10;9.97;;;4.10;99.90;;;;;;4023737;29;20175;-90
2021/01/11 09:39:33;;;;;;;15.13;10.00;;;4.10;99.90;;;;;;4023895;29;20182;-91
2021/01/11 09:41:45;;;;;;;15.63;10.43;;;4.10;99.90;;;;;;4039211;29;20177;-91
2021/01/11 09:43:45;;;;;;;14.90;10.10;;;4.00;99.90;;;;;;4023883;29;20305;-92
2021/01/11 09:45:46;;;;;;;16.30;9.70;;;4.20;99.90;;;;;;4023696;29;20175;-91
2021/01/11 09:47:47;;;;;;;15.53;9.23;;;4.10;99.90;;;;;;4023763;29;20193;-91
2021/01/11 09:49:48;;;;;;;14.47;9.30;;;4.00;99.90;;;;;;4023504;29;20254;-90
2021/01/11 09:51:50;;;;;;;15.53;10.20;;;4.00;99.90;;;;;;4038856;29;20181;-91
2021/01/11 09:53:50;;;;;;;13.50;10.30;;;4.20;99.90;;;;;;4023467;29;20702;-91
2021/01/11 09:55:51;;;;;;;14.40;9.30;;;4.20;99.90;;;;;;4023476;29;20242;-91
2021/01/11 09:57:52;;;;;;;16.40;10.70;;;4.10;99.90;;;;;;4023657;29;20178;-91
2021/01/11 09:59:52;;;;;;;14.20;8.80;;;4.30;99.90;;;;;;4023588;29;20619;-92
2021/01/11 10:01:54;;;;;;;15.13;9.63;;;4.30;99.90;;;;;;4023541;29;20182;-93
2021/01/11 10:03:55;;;;;;;12.27;7.70;;;4.20;99.90;;;;;;4023530;29;20198;-93
2021/01/11 10:05:56;;;;;;;15.37;8.50;;;4.20;99.90;;;;;;4038682;29;20217;-90
2021/01/11 10:07:57;;;;;;;16.73;9.57;;;4.20;99.90;;;;;;4023818;29;20185;-92
2021/01/11 10:09:58;;;;;;;15.87;9.37;;;4.20;99.90;;;;;;4038790;29;20193;-92
2021/01/11 10:12:01;;;;;;;14.43;10.33;;;4.10;99.90;;;;;;4023393;29;20238;-93
2021/01/11 10:14:02;;;;;;;14.57;9.67;;;4.10;99.90;;;;;;4023211;29;20307;-93
2021/01/11 10:16:03;;;;;;;21.57;11.37;;;4.10;99.90;;;;;;4038738;29;20285;-93
2021/01/11 10:18:03;;;;;;;17.37;10.33;;;4.20;99.90;;;;;;4023345;29;20182;-91
2021/01/11 10:20:06;;;;;;;13.93;9.60;;;4.20;99.90;;;;;;4023329;29;20194;-93
2021/01/11 10:22:07;;;;;;;18.07;11.43;;;4.20;99.90;;;;;;4038877;29;20181;-92
2021/01/11 10:24:08;;;;;;;16.37;10.80;;;4.20;99.90;;;;;;4038290;29;20216;-93
2021/01/11 10:26:20;;;;;;;17.87;11.00;;;4.40;99.90;;;;;;4023212;29;20183;-93
2021/01/11 10:28:21;;;;;;;19.60;10.83;;;4.50;99.90;;;;;;4023095;29;20186;-94
2021/01/11 10:30:22;;;;;;;12.70;7.87;;;4.50;99.90;;;;;;4038441;29;20184;-90
2021/01/11 10:32:22;;;;;;;16.07;11.10;;;4.30;99.90;;;;;;4023003;29;20194;-92
2021/01/11 10:34:23;;;;;;;16.77;11.13;;;4.30;99.90;;;;;;4023098;29;20198;-93
2021/01/11 10:36:24;;;;;;;18.50;11.17;;;4.50;99.90;;;;;;4023097;29;20605;-92
2021/01/11 10:38:25;;;;;;;22.67;11.07;;;4.60;99.90;;;;;;4023113;29;20275;-93
2021/01/11 10:40:26;;;;;;;20.37;11.03;;;4.50;99.90;;;;;;4038379;29;20594;-94
2021/01/11 10:42:27;;;;;;;16.63;10.80;;;4.50;99.90;;;;;;4022870;29;20170;-93
2021/01/11 10:44:28;;;;;;;18.73;11.63;;;4.40;99.90;;;;;;4023236;29;20211;-94
2021/01/11 10:46:29;;;;;;;20.30;11.83;;;4.40;99.90;;;;;;4022769;29;20170;-92
2021/01/11 10:48:29;;;;;;;17.30;10.83;;;4.40;99.90;;;;;;4022926;29;20303;-92
2021/01/11 10:50:30;;;;;;;18.83;11.67;;;4.40;99.90;;;;;;4022717;29;20488;-93
2021/01/11 10:52:31;;;;;;;21.73;13.27;;;4.40;99.90;;;;;;4022555;29;20233;-93
2021/01/11 10:54:31;;;;;;;15.10;9.53;;;4.40;99.90;;;;;;4022750;29;20250;-93
2021/01/11 10:56:32;;;;;;;14.20;9.13;;;4.50;99.90;;;;;;4022683;29;20235;-93
2021/01/11 10:58:34;;;;;;;23.60;12.47;;;4.50;99.90;;;;;;4022796;29;20186;-92
2021/01/11 11:00:35;;;;;;;18.07;11.23;;;4.40;99.90;;;;;;4038191;29;20218;-92
2021/01/11 11:02:37;;;;;;;23.83;13.27;;;4.30;99.90;;;;;;4022414;29;20186;-93
2021/01/11 11:04:37;;;;;;;17.20;9.43;;;4.30;99.90;;;;;;4022836;29;20273;-92
2021/01/11 11:06:38;;;;;;;22.27;12.27;;;4.40;99.90;;;;;;4038185;29;20219;-93
2021/01/11 11:08:39;;;;;;;16.57;9.40;;;4.40;99.90;;;;;;4022793;29;20210;-93
2021/01/11 11:10:40;;;;;;;21.70;11.03;;;4.50;99.90;;;;;;4022838;29;20233;-94
2021/01/11 11:12:42;;;;;;;20.47;11.93;;;4.40;99.90;;;;;;4023107;29;20670;-93
2021/01/11 11:14:43;;;;;;;24.07;11.97;;;4.20;99.90;;;;;;4037950;29;20194;-92
2021/01/11 11:16:43;;;;;;;21.93;12.93;;;4.20;99.90;;;;;;4038018;29;20247;-92
2021/01/11 11:18:44;;;;;;;23.83;13.17;;;4.30;99.90;;;;;;4022687;29;20178;-93
2021/01/11 11:20:46;;;;;;;22.67;12.73;;;4.50;99.90;;;;;;4022654;29;20649;-90
2021/01/11 11:22:47;;;;;;;16.37;10.20;;;4.70;99.90;;;;;;4022632;29;20269;-94
2021/01/11 11:24:48;;;;;;;24.60;13.60;;;4.80;99.90;;;;;;4037875;29;20197;-92
2021/01/11 11:26:49;;;;;;;15.50;9.90;;;4.70;99.90;;;;;;4022413;29;20614;-91
2021/01/11 11:28:49;;;;;;;21.10;11.93;;;4.80;99.90;;;;;;4022492;29;20272;-93
2021/01/11 11:30:50;;;;;;;20.83;13.77;;;4.80;99.90;;;;;;4022346;29;20179;-94
2021/01/11 11:32:52;;;;;;;20.33;11.37;;;4.70;99.90;;;;;;4022479;29;20670;-92
2021/01/11 11:34:52;;;;;;;23.47;14.20;;;4.70;99.90;;;;;;4037594;29;20196;-93
2021/01/11 11:36:56;;;;;;;17.77;10.97;;;4.80;99.90;;;;;;4037668;29;20578;-90
2021/01/11 11:38:58;;;;;;;20.70;13.50;;;4.80;99.90;;;;;;4022467;29;20686;-90